sensor_id;sensor_type;location;lat;lon;timestamp;P1;durP1;ratioP1;P2;durP2;ratioP2
35442;SDS011;21561;55.654;37.592;2022-12-24T00:01:03;26.17;;;12.32;;
35442;SDS011;21561;55.654;37.592;2022-12-24T00:03:30;26.25;;;11.95;;
35442;SDS011;21561;55.654;37.592;2022-12-24T00:05:58;26.27;;;12.23;;
35442;SDS011;21561;55.654;37.592;2022-12-24T00:08:25;26.75;;;12.15;;
35442;SDS011;21561;55.654;37.592;2022-12-24T00:10:51;26.88;;;12.13;;
35442;SDS011;21561;55.654;37.592;2022-12-24T00:13:19;30.23;;;12.82;;
35442;SDS011;21561;55.654;37.592;2022-12-24T00:15:47;28.50;;;12.38;;
35442;SDS011;21561;55.654;37.592;2022-12-24T00:18:14;26.23;;;11.70;;
35442;SDS011;21561;55.654;37.592;2022-12-24T00:20:44;28.02;;;12.38;;
35442;SDS011;21561;55.654;37.592;2022-12-24T00:23:12;31.42;;;12.68;;
35442;SDS011;21561;55.654;37.592;2022-12-24T00:25:39;28.42;;;12.57;;
35442;SDS011;21561;55.654;37.592;2022-12-24T00:28:06;30.65;;;13.27;;
35442;SDS011;21561;55.654;37.592;2022-12-24T00:30:33;28.15;;;12.43;;
35442;SDS011;21561;55.654;37.592;2022-12-24T00:33:00;27.30;;;12.70;;
35442;SDS011;21561;55.654;37.592;2022-12-24T00:35:27;28.00;;;12.43;;
35442;SDS011;21561;55.654;37.592;2022-12-24T00:37:55;28.70;;;12.65;;
35442;SDS011;21561;55.654;37.592;2022-12-24T00:40:21;27.88;;;13.80;;
35442;SDS011;21561;55.654;37.592;2022-12-24T00:42:48;28.90;;;13.13;;
35442;SDS011;21561;55.654;37.592;2022-12-24T00:45:15;31.20;;;14.35;;
35442;SDS011;21561;55.654;37.592;2022-12-24T00:47:42;31.30;;;13.20;;
35442;SDS011;21561;55.654;37.592;2022-12-24T00:50:09;33.15;;;15.45;;
35442;SDS011;21561;55.654;37.592;2022-12-24T00:52:36;30.70;;;13.80;;
35442;SDS011;21561;55.654;37.592;2022-12-24T00:55:03;33.90;;;14.25;;
35442;SDS011;21561;55.654;37.592;2022-12-24T00:57:30;33.00;;;14.23;;
35442;SDS011;21561;55.654;37.592;2022-12-24T00:59:57;31.60;;;14.60;;
35442;SDS011;21561;55.654;37.592;2022-12-24T01:02:24;32.67;;;14.50;;
35442;SDS011;21561;55.654;37.592;2022-12-24T01:04:51;34.42;;;15.13;;
35442;SDS011;21561;55.654;37.592;2022-12-24T01:07:36;33.22;;;15.30;;
35442;SDS011;21561;55.654;37.592;2022-12-24T01:10:05;32.05;;;14.40;;
35442;SDS011;21561;55.654;37.592;2022-12-24T01:12:33;31.73;;;15.38;;
35442;SDS011;21561;55.654;37.592;2022-12-24T01:15:01;31.30;;;14.48;;
35442;SDS011;21561;55.654;37.592;2022-12-24T01:17:30;33.95;;;14.65;;
35442;SDS011;21561;55.654;37.592;2022-12-24T01:20:00;34.75;;;15.02;;
35442;SDS011;21561;55.654;37.592;2022-12-24T01:22:28;31.73;;;14.32;;
35442;SDS011;21561;55.654;37.592;2022-12-24T01:25:15;31.15;;;13.68;;
35442;SDS011;21561;55.654;37.592;2022-12-24T01:27:42;31.30;;;13.85;;
35442;SDS011;21561;55.654;37.592;2022-12-24T01:30:10;32.58;;;15.07;;
35442;SDS011;21561;55.654;37.592;2022-12-24T01:32:40;30.17;;;13.20;;
35442;SDS011;21561;55.654;37.592;2022-12-24T01:35:07;29.17;;;12.70;;
35442;SDS011;21561;55.654;37.592;2022-12-24T01:37:35;32.13;;;13.80;;
35442;SDS011;21561;55.654;37.592;2022-12-24T01:40:02;33.70;;;14.82;;
35442;SDS011;21561;55.654;37.592;2022-12-24T01:42:49;33.30;;;14.05;;
35442;SDS011;21561;55.654;37.592;2022-12-24T01:45:48;31.63;;;14.32;;
35442;SDS011;21561;55.654;37.592;2022-12-24T01:48:30;32.50;;;14.95;;
35442;SDS011;21561;55.654;37.592;2022-12-24T01:51:12;32.85;;;14.90;;
35442;SDS011;21561;55.654;37.592;2022-12-24T01:53:46;32.15;;;14.18;;
35442;SDS011;21561;55.654;37.592;2022-12-24T01:56:15;33.42;;;15.02;;
35442;SDS011;21561;55.654;37.592;2022-12-24T01:58:42;33.22;;;13.80;;
35442;SDS011;21561;55.654;37.592;2022-12-24T02:01:13;34.95;;;14.25;;
35442;SDS011;21561;55.654;37.592;2022-12-24T02:03:40;31.95;;;14.18;;
35442;SDS011;21561;55.654;37.592;2022-12-24T02:06:08;32.47;;;14.48;;
35442;SDS011;21561;55.654;37.592;2022-12-24T02:08:40;31.65;;;14.38;;
35442;SDS011;21561;55.654;37.592;2022-12-24T02:11:08;29.98;;;14.18;;
35442;SDS011;21561;55.654;37.592;2022-12-24T02:13:44;32.88;;;13.65;;
35442;SDS011;21561;55.654;37.592;2022-12-24T02:27:45;34.35;;;14.18;;
35442;SDS011;21561;55.654;37.592;2022-12-24T02:30:23;28.75;;;13.70;;
35442;SDS011;21561;55.654;37.592;2022-12-24T02:33:12;32.85;;;13.85;;
35442;SDS011;21561;55.654;37.592;2022-12-24T02:38:50;31.20;;;14.07;;
35442;SDS011;21561;55.654;37.592;2022-12-24T02:41:41;31.15;;;13.85;;
35442;SDS011;21561;55.654;37.592;2022-12-24T02:44:51;34.58;;;15.05;;
35442;SDS011;21561;55.654;37.592;2022-12-24T02:47:23;34.25;;;13.75;;
35442;SDS011;21561;55.654;37.592;2022-12-24T02:49:52;32.50;;;14.57;;
35442;SDS011;21561;55.654;37.592;2022-12-24T02:52:35;33.03;;;14.23;;
35442;SDS011;21561;55.654;37.592;2022-12-24T02:55:08;35.90;;;14.45;;
35442;SDS011;21561;55.654;37.592;2022-12-24T03:00:56;37.10;;;14.93;;
35442;SDS011;21561;55.654;37.592;2022-12-24T03:10:00;31.60;;;14.43;;
35442;SDS011;21561;55.654;37.592;2022-12-24T03:12:40;33.20;;;13.70;;
35442;SDS011;21561;55.654;37.592;2022-12-24T03:15:11;32.75;;;14.43;;
35442;SDS011;21561;55.654;37.592;2022-12-24T03:17:40;31.05;;;14.50;;
35442;SDS011;21561;55.654;37.592;2022-12-24T03:20:10;28.70;;;12.82;;
35442;SDS011;21561;55.654;37.592;2022-12-24T03:22:41;33.20;;;14.57;;
35442;SDS011;21561;55.654;37.592;2022-12-24T03:25:08;35.42;;;15.07;;
35442;SDS011;21561;55.654;37.592;2022-12-24T03:27:35;31.55;;;14.27;;
35442;SDS011;21561;55.654;37.592;2022-12-24T03:30:09;30.55;;;14.45;;
35442;SDS011;21561;55.654;37.592;2022-12-24T03:32:38;32.35;;;14.70;;
35442;SDS011;21561;55.654;37.592;2022-12-24T03:35:05;29.73;;;13.40;;
35442;SDS011;21561;55.654;37.592;2022-12-24T03:37:33;34.22;;;14.10;;
35442;SDS011;21561;55.654;37.592;2022-12-24T03:39:59;31.33;;;14.60;;
35442;SDS011;21561;55.654;37.592;2022-12-24T03:42:28;32.83;;;13.90;;
35442;SDS011;21561;55.654;37.592;2022-12-24T03:44:55;35.38;;;16.17;;
35442;SDS011;21561;55.654;37.592;2022-12-24T03:47:22;34.15;;;14.93;;
35442;SDS011;21561;55.654;37.592;2022-12-24T03:49:49;33.38;;;15.80;;
35442;SDS011;21561;55.654;37.592;2022-12-24T03:52:15;36.55;;;16.30;;
35442;SDS011;21561;55.654;37.592;2022-12-24T03:54:42;33.60;;;14.40;;
35442;SDS011;21561;55.654;37.592;2022-12-24T03:57:09;36.38;;;16.02;;
35442;SDS011;21561;55.654;37.592;2022-12-24T03:59:36;38.92;;;16.70;;
35442;SDS011;21561;55.654;37.592;2022-12-24T04:02:03;33.05;;;15.65;;
35442;SDS011;21561;55.654;37.592;2022-12-24T04:04:29;38.55;;;16.92;;
35442;SDS011;21561;55.654;37.592;2022-12-24T04:06:59;35.72;;;15.27;;
35442;SDS011;21561;55.654;37.592;2022-12-24T04:09:25;34.63;;;14.68;;
35442;SDS011;21561;55.654;37.592;2022-12-24T04:11:52;36.10;;;17.20;;
35442;SDS011;21561;55.654;37.592;2022-12-24T04:14:19;38.60;;;17.00;;
35442;SDS011;21561;55.654;37.592;2022-12-24T04:16:46;35.25;;;17.38;;
35442;SDS011;21561;55.654;37.592;2022-12-24T04:19:13;36.38;;;15.10;;
35442;SDS011;21561;55.654;37.592;2022-12-24T04:21:40;36.83;;;16.10;;
35442;SDS011;21561;55.654;37.592;2022-12-24T04:24:06;40.70;;;16.60;;
35442;SDS011;21561;55.654;37.592;2022-12-24T04:26:33;38.88;;;17.48;;
35442;SDS011;21561;55.654;37.592;2022-12-24T04:29:00;38.45;;;16.70;;
35442;SDS011;21561;55.654;37.592;2022-12-24T04:31:27;37.90;;;15.93;;
35442;SDS011;21561;55.654;37.592;2022-12-24T04:33:54;40.25;;;16.42;;
35442;SDS011;21561;55.654;37.592;2022-12-24T04:36:20;39.08;;;17.02;;
35442;SDS011;21561;55.654;37.592;2022-12-24T04:38:47;38.17;;;16.55;;
35442;SDS011;21561;55.654;37.592;2022-12-24T04:41:18;42.10;;;17.35;;
35442;SDS011;21561;55.654;37.592;2022-12-24T04:43:50;42.13;;;18.42;;
35442;SDS011;21561;55.654;37.592;2022-12-24T04:46:20;47.45;;;17.15;;
35442;SDS011;21561;55.654;37.592;2022-12-24T04:48:49;38.17;;;15.48;;
35442;SDS011;21561;55.654;37.592;2022-12-24T04:51:18;38.33;;;16.48;;
35442;SDS011;21561;55.654;37.592;2022-12-24T04:53:45;43.63;;;16.60;;
35442;SDS011;21561;55.654;37.592;2022-12-24T04:56:13;41.83;;;17.25;;
35442;SDS011;21561;55.654;37.592;2022-12-24T04:58:41;39.75;;;17.17;;
35442;SDS011;21561;55.654;37.592;2022-12-24T05:01:11;38.42;;;17.27;;
35442;SDS011;21561;55.654;37.592;2022-12-24T05:03:40;41.40;;;17.67;;
35442;SDS011;21561;55.654;37.592;2022-12-24T05:06:07;42.03;;;17.20;;
35442;SDS011;21561;55.654;37.592;2022-12-24T05:08:37;43.28;;;17.05;;
35442;SDS011;21561;55.654;37.592;2022-12-24T05:11:04;43.00;;;18.13;;
35442;SDS011;21561;55.654;37.592;2022-12-24T05:13:32;41.03;;;17.90;;
35442;SDS011;21561;55.654;37.592;2022-12-24T05:16:10;43.25;;;18.50;;
35442;SDS011;21561;55.654;37.592;2022-12-24T05:18:38;39.80;;;17.58;;
35442;SDS011;21561;55.654;37.592;2022-12-24T05:21:08;44.80;;;18.48;;
35442;SDS011;21561;55.654;37.592;2022-12-24T05:23:39;40.28;;;17.33;;
35442;SDS011;21561;55.654;37.592;2022-12-24T05:26:45;43.88;;;18.33;;
35442;SDS011;21561;55.654;37.592;2022-12-24T05:29:15;41.08;;;17.70;;
35442;SDS011;21561;55.654;37.592;2022-12-24T05:31:42;42.22;;;18.15;;
35442;SDS011;21561;55.654;37.592;2022-12-24T05:34:11;42.92;;;19.30;;
35442;SDS011;21561;55.654;37.592;2022-12-24T05:36:40;41.35;;;17.70;;
35442;SDS011;21561;55.654;37.592;2022-12-24T05:39:06;40.65;;;17.85;;
35442;SDS011;21561;55.654;37.592;2022-12-24T05:41:41;41.88;;;16.75;;
35442;SDS011;21561;55.654;37.592;2022-12-24T05:44:08;41.85;;;18.48;;
35442;SDS011;21561;55.654;37.592;2022-12-24T05:46:34;39.00;;;16.95;;
35442;SDS011;21561;55.654;37.592;2022-12-24T05:49:01;39.70;;;17.08;;
35442;SDS011;21561;55.654;37.592;2022-12-24T05:51:28;40.25;;;17.20;;
35442;SDS011;21561;55.654;37.592;2022-12-24T05:53:55;38.92;;;17.05;;
35442;SDS011;21561;55.654;37.592;2022-12-24T05:56:22;40.42;;;16.67;;
35442;SDS011;21561;55.654;37.592;2022-12-24T05:58:50;36.95;;;14.30;;
35442;SDS011;21561;55.654;37.592;2022-12-24T06:01:20;36.75;;;15.82;;
35442;SDS011;21561;55.654;37.592;2022-12-24T06:03:47;38.30;;;15.20;;
35442;SDS011;21561;55.654;37.592;2022-12-24T06:06:16;33.67;;;15.02;;
35442;SDS011;21561;55.654;37.592;2022-12-24T06:08:46;33.50;;;14.13;;
35442;SDS011;21561;55.654;37.592;2022-12-24T06:11:15;35.00;;;15.43;;
35442;SDS011;21561;55.654;37.592;2022-12-24T06:13:43;35.28;;;16.58;;
35442;SDS011;21561;55.654;37.592;2022-12-24T06:16:11;40.83;;;17.33;;
35442;SDS011;21561;55.654;37.592;2022-12-24T06:18:40;41.40;;;17.00;;
35442;SDS011;21561;55.654;37.592;2022-12-24T06:21:07;41.65;;;16.63;;
35442;SDS011;21561;55.654;37.592;2022-12-24T06:23:36;39.10;;;16.35;;
35442;SDS011;21561;55.654;37.592;2022-12-24T06:26:05;43.15;;;17.30;;
35442;SDS011;21561;55.654;37.592;2022-12-24T06:28:34;38.45;;;16.63;;
35442;SDS011;21561;55.654;37.592;2022-12-24T06:31:02;42.53;;;17.98;;
35442;SDS011;21561;55.654;37.592;2022-12-24T06:33:31;51.13;;;17.48;;
35442;SDS011;21561;55.654;37.592;2022-12-24T06:35:58;46.63;;;17.60;;
35442;SDS011;21561;55.654;37.592;2022-12-24T06:38:26;50.92;;;17.95;;
35442;SDS011;21561;55.654;37.592;2022-12-24T06:40:55;44.90;;;17.73;;
35442;SDS011;21561;55.654;37.592;2022-12-24T06:43:22;45.90;;;17.67;;
35442;SDS011;21561;55.654;37.592;2022-12-24T06:45:49;43.92;;;16.70;;
35442;SDS011;21561;55.654;37.592;2022-12-24T06:48:16;44.00;;;17.35;;
35442;SDS011;21561;55.654;37.592;2022-12-24T06:50:43;52.10;;;17.75;;
35442;SDS011;21561;55.654;37.592;2022-12-24T06:53:10;47.50;;;19.00;;
35442;SDS011;21561;55.654;37.592;2022-12-24T06:55:38;45.95;;;18.90;;
35442;SDS011;21561;55.654;37.592;2022-12-24T06:58:05;47.53;;;18.80;;
35442;SDS011;21561;55.654;37.592;2022-12-24T07:00:31;48.08;;;17.88;;
35442;SDS011;21561;55.654;37.592;2022-12-24T07:02:58;56.97;;;19.70;;
35442;SDS011;21561;55.654;37.592;2022-12-24T07:05:25;46.60;;;18.13;;
35442;SDS011;21561;55.654;37.592;2022-12-24T07:07:52;47.33;;;18.80;;
35442;SDS011;21561;55.654;37.592;2022-12-24T07:10:19;51.20;;;18.92;;
35442;SDS011;21561;55.654;37.592;2022-12-24T07:12:46;56.08;;;21.13;;
35442;SDS011;21561;55.654;37.592;2022-12-24T07:15:14;50.03;;;19.50;;
35442;SDS011;21561;55.654;37.592;2022-12-24T07:17:41;54.17;;;19.98;;
35442;SDS011;21561;55.654;37.592;2022-12-24T07:20:10;53.47;;;19.58;;
35442;SDS011;21561;55.654;37.592;2022-12-24T07:22:40;49.93;;;19.00;;
35442;SDS011;21561;55.654;37.592;2022-12-24T07:25:07;47.35;;;18.27;;
35442;SDS011;21561;55.654;37.592;2022-12-24T07:27:34;50.22;;;18.48;;
35442;SDS011;21561;55.654;37.592;2022-12-24T07:30:02;48.67;;;18.98;;
35442;SDS011;21561;55.654;37.592;2022-12-24T07:32:29;44.63;;;18.75;;
35442;SDS011;21561;55.654;37.592;2022-12-24T07:34:56;47.28;;;17.83;;
35442;SDS011;21561;55.654;37.592;2022-12-24T07:37:23;43.63;;;18.10;;
35442;SDS011;21561;55.654;37.592;2022-12-24T07:39:50;45.00;;;19.25;;
35442;SDS011;21561;55.654;37.592;2022-12-24T07:42:17;45.13;;;19.73;;
35442;SDS011;21561;55.654;37.592;2022-12-24T07:44:43;40.03;;;15.68;;
35442;SDS011;21561;55.654;37.592;2022-12-24T07:47:10;43.65;;;17.10;;
35442;SDS011;21561;55.654;37.592;2022-12-24T07:49:37;40.70;;;17.15;;
35442;SDS011;21561;55.654;37.592;2022-12-24T07:52:04;36.55;;;16.25;;
35442;SDS011;21561;55.654;37.592;2022-12-24T07:54:31;42.72;;;17.55;;
35442;SDS011;21561;55.654;37.592;2022-12-24T07:56:58;39.72;;;15.43;;
35442;SDS011;21561;55.654;37.592;2022-12-24T07:59:24;36.17;;;14.32;;
35442;SDS011;21561;55.654;37.592;2022-12-24T08:01:51;38.30;;;15.75;;
35442;SDS011;21561;55.654;37.592;2022-12-24T08:04:18;41.60;;;17.05;;
35442;SDS011;21561;55.654;37.592;2022-12-24T08:06:45;39.85;;;15.38;;
35442;SDS011;21561;55.654;37.592;2022-12-24T08:09:12;32.97;;;14.48;;
35442;SDS011;21561;55.654;37.592;2022-12-24T08:11:40;34.25;;;15.77;;
35442;SDS011;21561;55.654;37.592;2022-12-24T08:14:16;33.58;;;14.45;;
35442;SDS011;21561;55.654;37.592;2022-12-24T08:16:43;33.47;;;13.30;;
35442;SDS011;21561;55.654;37.592;2022-12-24T08:19:10;33.67;;;14.05;;
35442;SDS011;21561;55.654;37.592;2022-12-24T08:21:37;34.67;;;14.77;;
35442;SDS011;21561;55.654;37.592;2022-12-24T08:24:04;32.83;;;13.77;;
35442;SDS011;21561;55.654;37.592;2022-12-24T08:26:31;33.83;;;14.52;;
35442;SDS011;21561;55.654;37.592;2022-12-24T08:28:58;38.10;;;15.20;;
35442;SDS011;21561;55.654;37.592;2022-12-24T08:31:25;36.67;;;13.82;;
35442;SDS011;21561;55.654;37.592;2022-12-24T08:33:52;39.00;;;14.95;;
35442;SDS011;21561;55.654;37.592;2022-12-24T08:36:19;35.80;;;15.18;;
35442;SDS011;21561;55.654;37.592;2022-12-24T08:38:45;39.10;;;15.30;;
35442;SDS011;21561;55.654;37.592;2022-12-24T08:41:12;33.90;;;13.90;;
35442;SDS011;21561;55.654;37.592;2022-12-24T08:43:39;31.33;;;11.77;;
35442;SDS011;21561;55.654;37.592;2022-12-24T08:46:06;33.53;;;13.80;;
35442;SDS011;21561;55.654;37.592;2022-12-24T08:48:33;34.17;;;14.07;;
35442;SDS011;21561;55.654;37.592;2022-12-24T08:51:04;35.00;;;13.90;;
35442;SDS011;21561;55.654;37.592;2022-12-24T08:56:05;32.22;;;12.65;;
35442;SDS011;21561;55.654;37.592;2022-12-24T08:58:34;38.95;;;14.48;;
35442;SDS011;21561;55.654;37.592;2022-12-24T09:01:08;38.17;;;14.40;;
35442;SDS011;21561;55.654;37.592;2022-12-24T09:03:36;42.58;;;16.50;;
35442;SDS011;21561;55.654;37.592;2022-12-24T09:06:03;41.60;;;16.00;;
35442;SDS011;21561;55.654;37.592;2022-12-24T09:08:31;45.28;;;17.25;;
35442;SDS011;21561;55.654;37.592;2022-12-24T09:11:05;34.40;;;13.63;;
35442;SDS011;21561;55.654;37.592;2022-12-24T09:13:37;40.33;;;16.45;;
35442;SDS011;21561;55.654;37.592;2022-12-24T09:16:04;40.45;;;15.13;;
35442;SDS011;21561;55.654;37.592;2022-12-24T09:18:31;35.95;;;14.43;;
35442;SDS011;21561;55.654;37.592;2022-12-24T09:20:59;37.90;;;15.15;;
35442;SDS011;21561;55.654;37.592;2022-12-24T09:23:37;34.40;;;13.98;;
35442;SDS011;21561;55.654;37.592;2022-12-24T09:26:08;41.90;;;15.23;;
35442;SDS011;21561;55.654;37.592;2022-12-24T09:28:35;31.73;;;13.50;;
35442;SDS011;21561;55.654;37.592;2022-12-24T09:31:03;35.47;;;13.95;;
35442;SDS011;21561;55.654;37.592;2022-12-24T09:33:32;40.40;;;14.65;;
35442;SDS011;21561;55.654;37.592;2022-12-24T09:36:01;36.55;;;14.13;;
35442;SDS011;21561;55.654;37.592;2022-12-24T09:38:28;35.33;;;14.57;;
35442;SDS011;21561;55.654;37.592;2022-12-24T09:40:56;34.60;;;14.98;;
35442;SDS011;21561;55.654;37.592;2022-12-24T09:43:32;34.17;;;14.00;;
35442;SDS011;21561;55.654;37.592;2022-12-24T09:48:54;38.38;;;14.40;;
35442;SDS011;21561;55.654;37.592;2022-12-24T09:54:03;41.95;;;15.88;;
35442;SDS011;21561;55.654;37.592;2022-12-24T09:56:38;41.40;;;14.98;;
35442;SDS011;21561;55.654;37.592;2022-12-24T09:59:09;36.10;;;15.15;;
35442;SDS011;21561;55.654;37.592;2022-12-24T10:01:40;39.53;;;14.60;;
35442;SDS011;21561;55.654;37.592;2022-12-24T10:04:11;36.63;;;14.43;;
35442;SDS011;21561;55.654;37.592;2022-12-24T10:06:53;35.33;;;14.13;;
35442;SDS011;21561;55.654;37.592;2022-12-24T10:09:27;35.22;;;13.57;;
35442;SDS011;21561;55.654;37.592;2022-12-24T10:12:13;38.20;;;15.07;;
35442;SDS011;21561;55.654;37.592;2022-12-24T10:17:28;42.00;;;14.60;;
35442;SDS011;21561;55.654;37.592;2022-12-24T10:23:02;40.55;;;15.07;;
35442;SDS011;21561;55.654;37.592;2022-12-24T10:28:41;36.47;;;13.30;;
35442;SDS011;21561;55.654;37.592;2022-12-24T10:31:12;45.03;;;14.45;;
35442;SDS011;21561;55.654;37.592;2022-12-24T10:33:41;40.05;;;14.75;;
35442;SDS011;21561;55.654;37.592;2022-12-24T10:36:16;36.83;;;14.40;;
35442;SDS011;21561;55.654;37.592;2022-12-24T10:38:44;36.08;;;13.60;;
35442;SDS011;21561;55.654;37.592;2022-12-24T10:41:12;40.30;;;14.20;;
35442;SDS011;21561;55.654;37.592;2022-12-24T10:43:40;36.67;;;13.75;;
35442;SDS011;21561;55.654;37.592;2022-12-24T10:46:17;41.35;;;14.00;;
35442;SDS011;21561;55.654;37.592;2022-12-24T10:54:00;39.80;;;14.00;;
35442;SDS011;21561;55.654;37.592;2022-12-24T10:56:38;41.70;;;14.80;;
35442;SDS011;21561;55.654;37.592;2022-12-24T11:04:57;43.33;;;14.60;;
35442;SDS011;21561;55.654;37.592;2022-12-24T11:07:26;43.42;;;14.60;;
35442;SDS011;21561;55.654;37.592;2022-12-24T11:09:59;44.05;;;14.68;;
35442;SDS011;21561;55.654;37.592;2022-12-24T11:12:30;48.60;;;15.48;;
35442;SDS011;21561;55.654;37.592;2022-12-24T11:14:58;44.30;;;15.30;;
35442;SDS011;21561;55.654;37.592;2022-12-24T11:17:29;35.55;;;13.85;;
35442;SDS011;21561;55.654;37.592;2022-12-24T11:19:56;42.97;;;14.98;;
35442;SDS011;21561;55.654;37.592;2022-12-24T11:22:25;34.08;;;12.70;;
35442;SDS011;21561;55.654;37.592;2022-12-24T11:27:40;46.80;;;15.63;;
35442;SDS011;21561;55.654;37.592;2022-12-24T11:32:48;37.88;;;15.05;;
35442;SDS011;21561;55.654;37.592;2022-12-24T11:35:40;34.43;;;15.00;;
35442;SDS011;21561;55.654;37.592;2022-12-24T11:38:11;32.63;;;13.30;;
35442;SDS011;21561;55.654;37.592;2022-12-24T11:40:47;36.05;;;14.02;;
35442;SDS011;21561;55.654;37.592;2022-12-24T11:43:20;30.85;;;13.25;;
35442;SDS011;21561;55.654;37.592;2022-12-24T11:45:48;28.25;;;11.85;;
35442;SDS011;21561;55.654;37.592;2022-12-24T11:48:31;42.50;;;13.68;;
35442;SDS011;21561;55.654;37.592;2022-12-24T11:51:00;37.08;;;13.95;;
35442;SDS011;21561;55.654;37.592;2022-12-24T11:53:53;33.40;;;12.30;;
35442;SDS011;21561;55.654;37.592;2022-12-24T11:56:28;27.23;;;11.50;;
35442;SDS011;21561;55.654;37.592;2022-12-24T12:01:53;26.77;;;11.13;;
35442;SDS011;21561;55.654;37.592;2022-12-24T12:04:29;29.48;;;11.63;;
35442;SDS011;21561;55.654;37.592;2022-12-24T12:07:24;23.98;;;10.38;;
35442;SDS011;21561;55.654;37.592;2022-12-24T12:12:41;35.15;;;11.98;;
35442;SDS011;21561;55.654;37.592;2022-12-24T12:15:15;24.08;;;10.10;;
35442;SDS011;21561;55.654;37.592;2022-12-24T12:17:49;27.05;;;11.07;;
35442;SDS011;21561;55.654;37.592;2022-12-24T12:21:03;26.08;;;11.38;;
35442;SDS011;21561;55.654;37.592;2022-12-24T12:25:49;27.20;;;11.82;;
35442;SDS011;21561;55.654;37.592;2022-12-24T12:28:38;33.35;;;11.98;;
35442;SDS011;21561;55.654;37.592;2022-12-24T12:34:10;29.52;;;11.75;;
35442;SDS011;21561;55.654;37.592;2022-12-24T12:36:44;26.08;;;10.57;;
35442;SDS011;21561;55.654;37.592;2022-12-24T12:39:14;29.17;;;11.63;;
35442;SDS011;21561;55.654;37.592;2022-12-24T12:44:29;23.88;;;10.77;;
35442;SDS011;21561;55.654;37.592;2022-12-24T12:47:11;28.38;;;11.18;;
35442;SDS011;21561;55.654;37.592;2022-12-24T12:58:07;23.35;;;10.70;;
35442;SDS011;21561;55.654;37.592;2022-12-24T13:00:41;25.70;;;10.38;;
35442;SDS011;21561;55.654;37.592;2022-12-24T13:11:04;21.17;;;9.48;;
35442;SDS011;21561;55.654;37.592;2022-12-24T13:19:29;22.35;;;9.65;;
35442;SDS011;21561;55.654;37.592;2022-12-24T13:22:16;23.05;;;9.35;;
35442;SDS011;21561;55.654;37.592;2022-12-24T13:24:50;19.88;;;9.13;;
35442;SDS011;21561;55.654;37.592;2022-12-24T13:29:59;20.95;;;8.48;;
35442;SDS011;21561;55.654;37.592;2022-12-24T13:32:36;18.90;;;8.50;;
35442;SDS011;21561;55.654;37.592;2022-12-24T13:37:46;21.05;;;9.57;;
35442;SDS011;21561;55.654;37.592;2022-12-24T13:47:59;20.25;;;9.20;;
35442;SDS011;21561;55.654;37.592;2022-12-24T13:50:35;19.88;;;8.15;;
35442;SDS011;21561;55.654;37.592;2022-12-24T13:53:02;18.25;;;8.32;;
35442;SDS011;21561;55.654;37.592;2022-12-24T13:55:31;19.83;;;8.07;;
35442;SDS011;21561;55.654;37.592;2022-12-24T13:57:59;20.67;;;8.63;;
35442;SDS011;21561;55.654;37.592;2022-12-24T14:03:19;20.63;;;9.13;;
35442;SDS011;21561;55.654;37.592;2022-12-24T14:06:12;19.52;;;8.77;;
35442;SDS011;21561;55.654;37.592;2022-12-24T14:08:55;20.30;;;9.10;;
35442;SDS011;21561;55.654;37.592;2022-12-24T14:11:30;21.33;;;8.90;;
35442;SDS011;21561;55.654;37.592;2022-12-24T14:14:34;21.00;;;8.80;;
35442;SDS011;21561;55.654;37.592;2022-12-24T14:19:45;18.38;;;8.15;;
35442;SDS011;21561;55.654;37.592;2022-12-24T14:22:26;21.50;;;8.35;;
35442;SDS011;21561;55.654;37.592;2022-12-24T14:25:18;18.65;;;8.23;;
35442;SDS011;21561;55.654;37.592;2022-12-24T14:27:53;24.13;;;9.73;;
35442;SDS011;21561;55.654;37.592;2022-12-24T14:30:26;21.67;;;8.60;;
35442;SDS011;21561;55.654;37.592;2022-12-24T14:32:54;21.65;;;8.75;;
35442;SDS011;21561;55.654;37.592;2022-12-24T14:35:25;19.73;;;8.90;;
35442;SDS011;21561;55.654;37.592;2022-12-24T14:38:02;20.08;;;7.45;;
35442;SDS011;21561;55.654;37.592;2022-12-24T14:40:36;20.95;;;8.40;;
35442;SDS011;21561;55.654;37.592;2022-12-24T14:43:33;19.63;;;8.43;;
35442;SDS011;21561;55.654;37.592;2022-12-24T14:46:13;20.77;;;8.65;;
35442;SDS011;21561;55.654;37.592;2022-12-24T14:48:55;20.83;;;8.70;;
35442;SDS011;21561;55.654;37.592;2022-12-24T14:51:32;19.90;;;8.50;;
35442;SDS011;21561;55.654;37.592;2022-12-24T14:56:40;19.98;;;8.57;;
35442;SDS011;21561;55.654;37.592;2022-12-24T14:59:14;20.63;;;8.50;;
35442;SDS011;21561;55.654;37.592;2022-12-24T15:01:45;18.88;;;7.88;;
35442;SDS011;21561;55.654;37.592;2022-12-24T15:06:42;18.42;;;8.50;;
35442;SDS011;21561;55.654;37.592;2022-12-24T15:09:20;20.70;;;8.60;;
35442;SDS011;21561;55.654;37.592;2022-12-24T15:11:50;19.85;;;8.40;;
35442;SDS011;21561;55.654;37.592;2022-12-24T15:14:20;19.38;;;8.60;;
35442;SDS011;21561;55.654;37.592;2022-12-24T15:17:01;20.80;;;9.10;;
35442;SDS011;21561;55.654;37.592;2022-12-24T15:19:36;18.85;;;8.50;;
35442;SDS011;21561;55.654;37.592;2022-12-24T15:22:09;22.38;;;9.65;;
35442;SDS011;21561;55.654;37.592;2022-12-24T15:24:48;19.45;;;7.63;;
35442;SDS011;21561;55.654;37.592;2022-12-24T15:27:16;20.58;;;8.32;;
35442;SDS011;21561;55.654;37.592;2022-12-24T15:29:46;18.77;;;7.68;;
35442;SDS011;21561;55.654;37.592;2022-12-24T15:32:16;18.25;;;7.47;;
35442;SDS011;21561;55.654;37.592;2022-12-24T15:34:48;17.73;;;7.65;;
35442;SDS011;21561;55.654;37.592;2022-12-24T15:37:18;18.30;;;7.03;;
35442;SDS011;21561;55.654;37.592;2022-12-24T15:42:34;19.05;;;7.35;;
35442;SDS011;21561;55.654;37.592;2022-12-24T15:45:20;18.25;;;6.65;;
35442;SDS011;21561;55.654;37.592;2022-12-24T15:47:54;39.25;;;10.65;;
35442;SDS011;21561;55.654;37.592;2022-12-24T15:50:36;18.88;;;7.25;;
35442;SDS011;21561;55.654;37.592;2022-12-24T15:59:19;18.55;;;7.18;;
35442;SDS011;21561;55.654;37.592;2022-12-24T16:04:52;15.38;;;6.10;;
35442;SDS011;21561;55.654;37.592;2022-12-24T16:07:24;14.52;;;5.60;;
35442;SDS011;21561;55.654;37.592;2022-12-24T16:09:52;15.60;;;5.75;;
35442;SDS011;21561;55.654;37.592;2022-12-24T16:12:38;14.50;;;5.68;;
35442;SDS011;21561;55.654;37.592;2022-12-24T16:15:11;15.07;;;5.50;;
35442;SDS011;21561;55.654;37.592;2022-12-24T16:17:40;15.13;;;5.90;;
35442;SDS011;21561;55.654;37.592;2022-12-24T16:20:15;16.95;;;5.68;;
35442;SDS011;21561;55.654;37.592;2022-12-24T16:22:47;16.30;;;6.30;;
35442;SDS011;21561;55.654;37.592;2022-12-24T16:25:25;14.63;;;5.60;;
35442;SDS011;21561;55.654;37.592;2022-12-24T16:27:54;15.90;;;5.68;;
35442;SDS011;21561;55.654;37.592;2022-12-24T16:30:25;15.80;;;5.45;;
35442;SDS011;21561;55.654;37.592;2022-12-24T16:32:52;17.55;;;6.30;;
35442;SDS011;21561;55.654;37.592;2022-12-24T16:35:24;15.27;;;5.82;;
35442;SDS011;21561;55.654;37.592;2022-12-24T16:37:52;15.57;;;5.65;;
35442;SDS011;21561;55.654;37.592;2022-12-24T16:40:21;16.85;;;6.88;;
35442;SDS011;21561;55.654;37.592;2022-12-24T16:42:53;16.25;;;6.57;;